Time;durP1;ratioP1;P1;durP2;ratioP2;P2;SDS_P1;SDS_P2;PMS_P1;PMS_P2;Temp;Humidity;BMP_temperature;BMP_pressure;BME280_temperature;BME280_humidity;BME280_pressure;Samples;Min_cycle;Max_cycle;Signal;HPM_P1;HPM_P2
2021/12/09 00:01:38;;;;;;;18.95;7.10;;;1.60;99.90;;;;;;5093883;28;20056;-89
2021/12/09 00:04:08;;;;;;;13.77;7.10;;;1.60;99.90;;;;;;5065406;28;20047;-87
2021/12/09 00:06:35;;;;;;;13.98;8.80;;;1.60;99.90;;;;;;5077507;28;20048;-88
2021/12/09 00:09:07;;;;;;;17.77;9.73;;;1.70;99.90;;;;;;5074903;28;20046;-89
2021/12/09 00:11:42;;;;;;;16.48;8.27;;;1.50;99.90;;;;;;5073583;28;20052;-88
2021/12/09 00:14:09;;;;;;;13.82;8.35;;;1.50;99.90;;;;;;5058373;28;20041;-87
2021/12/09 00:16:35;;;;;;;12.18;7.95;;;1.50;99.90;;;;;;5086071;28;20056;-86
2021/12/09 00:19:01;;;;;;;18.77;9.00;;;1.40;99.90;;;;;;5083095;28;20048;-87
2021/12/09 00:21:26;;;;;;;12.45;8.02;;;1.50;99.90;;;;;;5078751;28;20037;-86
2021/12/09 00:23:52;;;;;;;21.20;8.60;;;1.40;99.90;;;;;;5076383;28;20040;-85
2021/12/09 00:26:17;;;;;;;20.30;8.55;;;1.30;99.90;;;;;;5075559;28;20045;-88
2021/12/09 00:28:43;;;;;;;14.80;7.57;;;1.50;99.90;;;;;;5076621;28;20426;-85
2021/12/09 00:31:09;;;;;;;17.33;9.43;;;1.40;99.90;;;;;;5074358;28;20498;-89
2021/12/09 00:33:41;;;;;;;17.08;8.90;;;1.40;99.90;;;;;;5043426;28;20044;-88
2021/12/09 00:36:07;;;;;;;21.73;9.63;;;1.40;99.90;;;;;;5075959;28;20048;-88
2021/12/09 00:38:33;;;;;;;17.17;7.43;;;1.30;99.90;;;;;;5077406;28;20120;-87
2021/12/09 00:41:02;;;;;;;14.45;8.20;;;1.40;99.90;;;;;;5075562;28;20041;-88
2021/12/09 00:43:27;;;;;;;22.23;9.60;;;1.30;99.90;;;;;;5058467;28;20111;-89
2021/12/09 00:45:53;;;;;;;13.88;7.82;;;1.30;99.90;;;;;;5076465;28;20045;-80
2021/12/09 00:48:19;;;;;;;14.82;9.10;;;1.40;99.90;;;;;;5076395;28;20036;-87
2021/12/09 00:50:45;;;;;;;15.15;7.13;;;1.30;99.90;;;;;;5066225;28;20059;-89
2021/12/09 00:53:11;;;;;;;18.58;9.02;;;1.30;99.90;;;;;;5072054;28;20079;-86
2021/12/09 00:55:37;;;;;;;17.35;8.80;;;1.30;99.90;;;;;;5081024;28;20533;-90
2021/12/09 00:58:04;;;;;;;19.98;9.23;;;1.40;99.90;;;;;;5077035;28;20115;-88
2021/12/09 01:00:31;;;;;;;15.82;9.10;;;1.20;99.90;;;;;;5057484;28;20040;-88
2021/12/09 01:02:58;;;;;;;17.08;9.30;;;1.40;99.90;;;;;;5046212;28;20042;-90
2021/12/09 01:05:25;;;;;;;25.90;10.82;;;1.30;99.90;;;;;;5085110;28;20075;-89
2021/12/09 01:07:50;;;;;;;17.05;10.68;;;1.30;99.90;;;;;;5077697;28;20040;-87
2021/12/09 01:10:16;;;;;;;15.48;8.63;;;1.40;99.90;;;;;;5084402;28;20091;-88
2021/12/09 01:12:43;;;;;;;15.80;9.68;;;1.20;99.90;;;;;;5060752;28;20052;-89
2021/12/09 01:15:10;;;;;;;12.50;10.48;;;1.30;99.90;;;;;;5075272;28;20439;-90
2021/12/09 01:17:36;;;;;;;18.23;9.85;;;1.30;99.90;;;;;;5090517;28;20047;-88
2021/12/09 01:20:04;;;;;;;20.58;9.73;;;1.20;99.90;;;;;;5092030;28;20037;-82
2021/12/09 01:22:37;;;;;;;14.40;8.82;;;1.10;99.90;;;;;;5074235;28;20044;-91
2021/12/09 01:25:05;;;;;;;18.08;10.40;;;1.20;99.90;;;;;;5093472;28;20124;-88
2021/12/09 01:27:33;;;;;;;21.17;8.27;;;1.20;99.90;;;;;;5057466;28;20045;-88
2021/12/09 01:30:06;;;;;;;13.48;8.68;;;1.10;99.90;;;;;;5074939;28;20037;-89
2021/12/09 01:32:32;;;;;;;16.27;8.63;;;1.20;99.90;;;;;;5066811;28;20047;-89
2021/12/09 01:34:57;;;;;;;17.98;9.65;;;1.20;99.90;;;;;;5096897;28;20054;-87
2021/12/09 01:37:23;;;;;;;15.35;9.80;;;1.10;99.90;;;;;;5079571;28;20135;-88
2021/12/09 01:39:48;;;;;;;16.05;10.88;;;1.10;99.90;;;;;;5066781;28;20051;-88
2021/12/09 01:42:16;;;;;;;14.02;9.60;;;1.20;99.90;;;;;;5060871;28;20501;-87
2021/12/09 01:44:42;;;;;;;17.90;10.02;;;1.20;99.90;;;;;;5077098;28;20063;-90
2021/12/09 01:47:08;;;;;;;21.45;10.93;;;1.00;99.90;;;;;;5076046;28;20500;-90
2021/12/09 01:49:34;;;;;;;16.35;10.27;;;1.10;99.90;;;;;;5056609;28;20064;-89
2021/12/09 01:51:59;;;;;;;20.98;11.18;;;1.20;99.90;;;;;;5053940;28;20033;-89
2021/12/09 01:54:25;;;;;;;18.35;10.23;;;1.00;99.90;;;;;;5076380;28;20036;-90
2021/12/09 01:56:51;;;;;;;19.90;10.60;;;1.20;99.90;;;;;;5076079;28;20047;-88
2021/12/09 01:59:17;;;;;;;19.58;11.43;;;1.00;99.90;;;;;;5076413;28;20055;-88
2021/12/09 02:01:43;;;;;;;18.77;11.20;;;1.10;99.90;;;;;;5077752;28;20044;-86
2021/12/09 02:04:10;;;;;;;21.05;12.13;;;1.00;99.90;;;;;;5069814;28;20104;-87
2021/12/09 02:06:40;;;;;;;20.92;12.10;;;1.00;99.90;;;;;;5076085;28;20024;-86
2021/12/09 02:09:08;;;;;;;31.88;11.93;;;1.10;99.90;;;;;;5059037;28;20047;-90
2021/12/09 02:11:34;;;;;;;29.27;12.25;;;1.10;99.90;;;;;;5073110;28;20380;-88
2021/12/09 02:13:59;;;;;;;18.80;11.43;;;1.00;99.90;;;;;;5052510;28;20056;-85
2021/12/09 02:16:26;;;;;;;31.35;13.52;;;1.00;99.90;;;;;;5053494;28;20048;-86
2021/12/09 02:18:52;;;;;;;21.30;11.77;;;1.10;99.90;;;;;;5069838;28;20128;-88
2021/12/09 02:21:24;;;;;;;23.67;12.48;;;1.10;99.90;;;;;;5064457;28;20048;-87
2021/12/09 02:24:00;;;;;;;26.30;13.25;;;1.10;99.90;;;;;;5054979;28;20053;-85
2021/12/09 02:26:31;;;;;;;17.98;10.63;;;0.90;99.90;;;;;;5064830;28;20040;-88
2021/12/09 02:29:01;;;;;;;18.67;11.68;;;0.90;99.90;;;;;;5074105;28;20493;-88
2021/12/09 02:31:28;;;;;;;21.40;11.80;;;1.00;99.90;;;;;;5087144;28;20395;-89
2021/12/09 02:33:54;;;;;;;20.58;12.07;;;1.00;99.90;;;;;;5089906;28;20035;-79
2021/12/09 02:36:20;;;;;;;26.55;13.75;;;0.80;99.90;;;;;;5091273;28;20043;-87
2021/12/09 02:38:47;;;;;;;19.95;11.52;;;1.00;99.90;;;;;;5062936;28;20047;-83
2021/12/09 02:41:17;;;;;;;27.50;13.77;;;0.80;99.90;;;;;;5095273;28;20064;-74
2021/12/09 02:43:44;;;;;;;;;;;0.80;99.90;;;;;;5070863;28;20514;-82
2021/12/09 02:46:10;;;;;;;16.50;10.90;;;0.70;99.90;;;;;;5073562;28;20378;-88
2021/12/09 02:48:36;;;;;;;21.75;11.80;;;0.90;99.90;;;;;;5038895;28;20040;-88
2021/12/09 02:51:04;;;;;;;23.08;13.18;;;0.90;99.90;;;;;;5063564;28;20378;-84
2021/12/09 02:53:30;;;;;;;21.58;14.30;;;0.80;99.90;;;;;;5088206;28;20040;-88
2021/12/09 02:55:56;;;;;;;25.83;12.45;;;0.80;99.90;;;;;;5055337;28;20045;-87
2021/12/09 02:58:21;;;;;;;20.88;13.07;;;0.80;99.90;;;;;;5060698;28;20056;-88
2021/12/09 03:01:16;;;;;;;20.17;13.50;;;0.80;99.90;;;;;;5056231;28;20501;-88
2021/12/09 03:03:50;;;;;;;23.90;12.05;;;0.60;99.90;;;;;;5073804;28;20048;-86
2021/12/09 03:06:18;;;;;;;22.92;13.18;;;0.60;99.90;;;;;;5036600;28;20040;-87
2021/12/09 03:08:43;;;;;;;28.10;13.00;;;0.70;99.90;;;;;;5070768;28;20402;-87
2021/12/09 03:11:15;;;;;;;22.40;13.07;;;0.60;99.90;;;;;;5054478;28;20044;-86
2021/12/09 03:13:44;;;;;;;19.77;12.82;;;0.80;99.90;;;;;;5053432;28;20057;-87
2021/12/09 03:16:10;;;;;;;22.65;12.95;;;0.70;99.90;;;;;;5071858;28;20044;-86
2021/12/09 03:18:42;;;;;;;24.95;15.10;;;0.70;99.90;;;;;;5089442;28;20040;-87
2021/12/09 03:21:29;;;;;;;19.23;12.88;;;0.50;99.90;;;;;;5061692;28;20047;-87
2021/12/09 03:23:56;;;;;;;22.45;13.43;;;0.70;99.90;;;;;;5072456;28;20423;-87
2021/12/09 03:26:29;;;;;;;20.73;14.23;;;0.70;99.90;;;;;;5072250;28;20060;-87
2021/12/09 03:28:56;;;;;;;21.85;14.18;;;0.50;99.90;;;;;;5075331;28;20124;-86
2021/12/09 03:31:21;;;;;;;34.10;15.52;;;0.60;99.90;;;;;;5085078;28;20049;-88
2021/12/09 03:33:47;;;;;;;26.27;13.32;;;0.50;99.90;;;;;;5057608;28;20085;-88
2021/12/09 03:36:14;;;;;;;28.60;14.13;;;0.60;99.90;;;;;;5068133;28;20135;-83
2021/12/09 03:38:40;;;;;;;22.80;14.00;;;0.50;99.90;;;;;;5064319;28;20075;-89
2021/12/09 03:41:06;;;;;;;28.60;13.02;;;0.60;99.90;;;;;;5087033;28;20051;-87
2021/12/09 03:43:32;;;;;;;20.55;12.60;;;0.50;99.90;;;;;;5057467;28;20036;-89
2021/12/09 03:45:58;;;;;;;19.50;12.93;;;0.50;99.90;;;;;;5073808;28;20097;-86
2021/12/09 03:48:26;;;;;;;22.02;14.57;;;0.70;99.90;;;;;;5089929;28;20036;-87
2021/12/09 03:50:53;;;;;;;26.48;13.88;;;0.70;99.90;;;;;;5069542;28;20048;-90
2021/12/09 03:53:20;;;;;;;25.38;13.57;;;0.60;99.90;;;;;;5077578;28;20055;-85
2021/12/09 03:55:45;;;;;;;27.40;13.90;;;0.50;99.90;;;;;;5077670;28;20490;-88
2021/12/09 03:58:11;;;;;;;25.58;14.43;;;0.60;99.90;;;;;;5089053;28;20047;-86
2021/12/09 04:00:37;;;;;;;27.70;15.10;;;0.50;99.90;;;;;;5056980;28;20386;-87
2021/12/09 04:03:03;;;;;;;27.30;15.77;;;0.60;99.90;;;;;;5078155;28;20039;-87
2021/12/09 04:05:29;;;;;;;20.45;14.27;;;0.50;99.90;;;;;;5059281;28;20465;-89
2021/12/09 04:07:54;;;;;;;24.92;14.75;;;0.50;99.90;;;;;;5092679;28;20486;-88
2021/12/09 04:10:20;;;;;;;25.98;14.27;;;0.50;99.90;;;;;;5076815;28;20563;-88
2021/12/09 04:12:46;;;;;;;25.30;14.82;;;0.60;99.90;;;;;;5095184;28;20067;-89
2021/12/09 04:15:12;;;;;;;28.38;15.45;;;0.50;99.90;;;;;;5094961;28;20052;-89
2021/12/09 04:17:38;;;;;;;26.85;15.70;;;0.70;99.90;;;;;;5070189;28;20500;-88
2021/12/09 04:20:05;;;;;;;36.10;15.35;;;0.70;99.90;;;;;;5079449;28;20079;-87
2021/12/09 04:22:31;;;;;;;23.95;15.25;;;0.50;99.90;;;;;;5089990;28;20040;-89
2021/12/09 04:24:57;;;;;;;27.52;14.73;;;0.70;99.90;;;;;;5096509;28;20044;-89
2021/12/09 04:27:23;;;;;;;26.63;14.32;;;0.70;99.90;;;;;;5094749;28;20039;-87
2021/12/09 04:29:49;;;;;;;23.92;13.95;;;0.50;99.90;;;;;;5082178;28;20047;-85
2021/12/09 04:32:14;;;;;;;19.98;13.68;;;0.50;99.90;;;;;;5063920;28;20045;-75
2021/12/09 04:34:40;;;;;;;27.15;15.02;;;0.60;99.90;;;;;;5075455;28;20080;-87
2021/12/09 04:37:06;;;;;;;20.27;13.75;;;0.50;99.90;;;;;;5040550;28;20505;-86
2021/12/09 04:39:32;;;;;;;29.25;16.58;;;0.50;99.90;;;;;;5085552;28;20055;-85
2021/12/09 04:41:57;;;;;;;24.17;13.30;;;0.50;99.90;;;;;;5066771;28;20559;-87
2021/12/09 04:44:23;;;;;;;33.38;15.20;;;0.60;99.90;;;;;;5071843;28;20130;-86
2021/12/09 04:46:49;;;;;;;24.60;15.88;;;0.40;99.90;;;;;;5065005;28;20040;-86
2021/12/09 04:49:16;;;;;;;31.48;17.05;;;0.50;99.90;;;;;;5089391;28;20046;-85
2021/12/09 04:51:41;;;;;;;24.08;13.48;;;0.40;99.90;;;;;;5063801;28;20135;-88
2021/12/09 04:54:08;;;;;;;18.23;14.90;;;0.40;99.90;;;;;;5075083;28;20090;-88
2021/12/09 04:56:35;;;;;;;33.90;16.10;;;0.60;99.90;;;;;;5082549;28;20048;-88
2021/12/09 04:59:01;;;;;;;24.98;15.00;;;0.50;99.90;;;;;;5084586;28;20044;-87
2021/12/09 05:01:27;;;;;;;22.85;15.05;;;0.60;99.90;;;;;;5055287;28;20056;-86
2021/12/09 05:03:53;;;;;;;27.38;14.70;;;0.60;99.90;;;;;;5084728;28;20039;-88
2021/12/09 05:06:19;;;;;;;26.70;15.25;;;0.40;99.90;;;;;;5077528;28;20044;-86
2021/12/09 05:08:48;;;;;;;25.92;15.25;;;0.50;99.90;;;;;;5075309;28;20048;-88
2021/12/09 05:11:33;;;;;;;31.05;16.48;;;0.40;99.90;;;;;;5091862;28;20048;-74
2021/12/09 05:13:59;;;;;;;23.80;12.82;;;0.30;99.90;;;;;;5092288;28;20048;-87
2021/12/09 05:16:25;;;;;;;24.88;12.98;;;0.40;99.90;;;;;;5077144;28;20094;-88
2021/12/09 05:18:57;;;;;;;26.90;15.15;;;0.30;99.90;;;;;;5093640;28;20792;-88
2021/12/09 05:21:23;;;;;;;22.58;14.00;;;0.50;99.90;;;;;;5075109;28;20087;-87
2021/12/09 05:23:49;;;;;;;21.88;14.90;;;0.40;99.90;;;;;;5059452;28;20048;-89
2021/12/09 05:26:16;;;;;;;33.38;15.45;;;0.30;99.90;;;;;;5073183;28;20048;-78
2021/12/09 05:28:41;;;;;;;26.25;15.10;;;0.30;99.90;;;;;;5091400;28;20048;-87
2021/12/09 05:33:52;;;;;;;24.60;14.63;;;0.30;99.90;;;;;;5092326;28;20101;-89
2021/12/09 05:36:18;;;;;;;24.58;13.48;;;0.10;99.90;;;;;;5072545;28;20052;-87
2021/12/09 05:38:44;;;;;;;33.90;14.77;;;0.20;99.90;;;;;;5085292;28;20067;-88
2021/12/09 05:41:10;;;;;;;29.95;17.02;;;0.10;99.90;;;;;;5055384;28;20049;-86
2021/12/09 05:43:37;;;;;;;27.50;14.88;;;0.20;99.90;;;;;;5053271;28;20047;-88
2021/12/09 05:46:04;;;;;;;23.48;12.85;;;0.20;99.90;;;;;;5053704;28;20063;-88
2021/12/09 05:48:30;;;;;;;26.83;14.07;;;0.30;99.90;;;;;;5053510;28;20388;-88
2021/12/09 05:50:56;;;;;;;22.95;13.25;;;0.30;99.90;;;;;;5067834;28;20044;-82
2021/12/09 05:53:22;;;;;;;27.25;15.18;;;0.20;99.90;;;;;;5091946;28;20040;-88
2021/12/09 05:55:48;;;;;;;24.75;13.20;;;0.10;99.90;;;;;;5077152;28;20043;-86
2021/12/09 05:58:16;;;;;;;21.05;13.18;;;0.00;99.90;;;;;;5073305;28;20097;-75
2021/12/09 06:00:42;;;;;;;26.60;14.70;;;0.20;99.90;;;;;;5098728;28;20070;-83
2021/12/09 06:03:08;;;;;;;29.15;14.25;;;0.20;99.90;;;;;;5064168;28;20044;-87
2021/12/09 06:05:35;;;;;;;21.77;13.85;;;0.20;99.90;;;;;;5085250;28;20048;-79
2021/12/09 06:08:00;;;;;;;28.75;14.63;;;0.30;99.90;;;;;;5088862;28;20047;-87
2021/12/09 06:10:27;;;;;;;22.65;14.95;;;0.10;99.90;;;;;;5072961;28;20051;-87
2021/12/09 06:12:52;;;;;;;26.45;13.23;;;0.30;99.90;;;;;;5073505;28;20052;-82
2021/12/09 06:15:18;;;;;;;31.08;12.65;;;0.20;99.90;;;;;;5089417;28;20148;-86
2021/12/09 06:17:43;;;;;;;28.02;15.07;;;0.40;99.90;;;;;;5051893;28;20052;-82
2021/12/09 06:20:10;;;;;;;31.30;16.38;;;0.20;99.90;;;;;;5056974;28;20029;-86
2021/12/09 06:22:35;;;;;;;25.30;15.02;;;0.20;99.90;;;;;;5073994;28;20033;-87
2021/12/09 06:25:01;;;;;;;23.63;14.40;;;0.20;99.90;;;;;;5053377;28;20486;-87
2021/12/09 06:27:27;;;;;;;26.52;13.73;;;0.10;99.90;;;;;;5076727;28;20040;-87
2021/12/09 06:29:53;;;;;;;29.17;14.57;;;0.30;99.90;;;;;;5052168;28;20116;-87
2021/12/09 06:32:18;;;;;;;22.65;14.30;;;0.30;99.90;;;;;;5052908;28;20047;-87
2021/12/09 06:34:44;;;;;;;26.05;13.55;;;0.20;99.90;;;;;;5070928;28;20040;-88
2021/12/09 06:37:10;;;;;;;23.35;13.68;;;0.40;99.90;;;;;;5066987;28;20115;-86
2021/12/09 06:39:35;;;;;;;20.38;13.98;;;0.10;99.90;;;;;;5090171;28;20048;-86
2021/12/09 06:42:01;;;;;;;18.92;13.45;;;0.30;99.90;;;;;;5090409;28;20177;-86
2021/12/09 06:44:26;;;;;;;22.92;13.52;;;0.10;99.90;;;;;;5089181;28;20047;-85
2021/12/09 06:46:55;;;;;;;23.20;13.82;;;0.00;99.90;;;;;;5090270;28;20131;-85
2021/12/09 06:49:22;;;;;;;17.25;11.73;;;0.30;99.90;;;;;;5056315;28;20051;-87
2021/12/09 06:51:48;;;;;;;20.67;13.93;;;0.20;99.90;;;;;;5072361;28;20040;-87
2021/12/09 06:54:14;;;;;;;42.03;13.90;;;0.10;99.90;;;;;;5089868;28;20044;-79
2021/12/09 06:56:39;;;;;;;24.95;13.80;;;0.30;99.90;;;;;;5060563;28;20051;-83
2021/12/09 06:59:05;;;;;;;25.60;13.57;;;0.30;99.90;;;;;;5051518;28;20037;-87
2021/12/09 07:01:30;;;;;;;27.23;14.90;;;0.40;99.90;;;;;;5036311;28;20761;-86
2021/12/09 07:03:56;;;;;;;26.13;15.00;;;0.40;99.90;;;;;;5043720;28;20046;-86
2021/12/09 07:06:22;;;;;;;28.33;14.95;;;0.20;99.90;;;;;;5060288;28;20505;-87
2021/12/09 07:08:50;;;;;;;27.23;14.77;;;0.50;99.90;;;;;;5054497;28;20047;-87
2021/12/09 07:11:18;;;;;;;22.80;14.05;;;0.40;99.90;;;;;;5061210;28;20410;-87
2021/12/09 07:13:45;;;;;;;31.05;15.27;;;0.40;99.90;;;;;;5060959;28;20059;-87
2021/12/09 07:16:11;;;;;;;31.90;15.70;;;0.30;99.90;;;;;;5060239;28;20415;-88
2021/12/09 07:18:37;;;;;;;32.72;12.50;;;0.30;99.90;;;;;;5049404;28;20044;-87
2021/12/09 07:21:04;;;;;;;32.25;15.75;;;0.40;99.90;;;;;;5068891;28;20063;-87
2021/12/09 07:23:30;;;;;;;25.75;13.48;;;0.50;99.90;;;;;;5073959;28;20137;-86
2021/12/09 07:25:56;;;;;;;32.03;14.25;;;0.30;99.90;;;;;;5067808;28;20053;-87
2021/12/09 07:28:22;;;;;;;25.30;14.35;;;0.40;99.90;;;;;;5064481;28;20119;-81
2021/12/09 07:30:48;;;;;;;30.17;14.52;;;0.30;99.90;;;;;;5082324;28;20052;-87
2021/12/09 07:33:14;;;;;;;27.08;13.27;;;0.30;99.90;;;;;;5075344;28;20045;-82
2021/12/09 07:35:40;;;;;;;28.00;14.18;;;0.40;99.90;;;;;;5068865;28;20479;-85
2021/12/09 07:38:06;;;;;;;21.88;11.90;;;0.40;99.90;;;;;;5067540;28;20427;-86
2021/12/09 07:40:33;;;;;;;21.55;10.98;;;0.40;99.90;;;;;;5066032;28;20052;-86
2021/12/09 07:42:59;;;;;;;25.25;12.75;;;0.50;99.90;;;;;;5055669;28;20044;-82
2021/12/09 07:45:25;;;;;;;27.45;12.82;;;0.50;99.90;;;;;;5072618;28;20101;-84
2021/12/09 07:47:52;;;;;;;21.00;11.40;;;0.70;99.90;;;;;;5068371;28;20037;-79
2021/12/09 07:50:22;;;;;;;27.17;11.98;;;0.50;99.90;;;;;;5067752;28;20692;-86
2021/12/09 07:52:51;;;;;;;23.30;11.93;;;0.80;99.90;;;;;;5060853;28;20060;-87
2021/12/09 07:55:19;;;;;;;31.92;12.57;;;0.50;99.90;;;;;;5063097;28;20044;-85
2021/12/09 07:57:45;;;;;;;27.25;12.77;;;0.70;99.90;;;;;;5057319;28;20056;-81
2021/12/09 08:00:20;;;;;;;27.02;12.75;;;0.70;99.90;;;;;;5073014;28;20040;-80
2021/12/09 08:02:47;;;;;;;21.33;11.32;;;0.50;99.90;;;;;;5072716;28;20601;-82
2021/12/09 08:05:15;;;;;;;25.42;10.85;;;0.50;99.90;;;;;;5064647;28;20170;-76
2021/12/09 08:07:41;;;;;;;23.67;13.25;;;0.70;99.90;;;;;;5052104;28;20060;-83
2021/12/09 08:10:12;;;;;;;24.90;11.63;;;0.50;99.90;;;;;;5054858;28;20047;-85
2021/12/09 08:12:38;;;;;;;23.40;11.98;;;0.60;99.90;;;;;;5057926;28;20049;-82
2021/12/09 08:15:06;;;;;;;23.65;12.02;;;0.70;99.90;;;;;;5087681;28;20048;-82
2021/12/09 08:20:17;;;;;;;28.38;12.13;;;0.60;99.90;;;;;;5066763;28;20052;-81
2021/12/09 08:22:44;;;;;;;27.30;11.25;;;0.80;99.90;;;;;;5083862;28;20047;-77
2021/12/09 08:25:13;;;;;;;20.50;11.70;;;0.90;99.90;;;;;;5072868;28;20161;-79
2021/12/09 08:27:40;;;;;;;25.52;12.50;;;0.70;99.90;;;;;;5070512;28;20127;-79
2021/12/09 08:30:07;;;;;;;20.88;12.18;;;0.90;99.90;;;;;;5072179;28;20458;-80
2021/12/09 08:32:33;;;;;;;21.00;11.52;;;0.80;99.90;;;;;;5053984;28;20060;-79
2021/12/09 08:34:59;;;;;;;28.80;11.20;;;1.00;99.90;;;;;;5082420;28;20040;-79
2021/12/09 08:37:25;;;;;;;27.70;11.70;;;1.00;99.90;;;;;;5065227;28;20569;-79
2021/12/09 08:39:51;;;;;;;18.83;10.50;;;1.00;99.90;;;;;;5083598;28;20076;-79
2021/12/09 08:42:17;;;;;;;20.45;9.85;;;0.90;99.90;;;;;;5078280;28;20128;-79
2021/12/09 08:44:42;;;;;;;19.48;9.73;;;0.90;99.90;;;;;;5060855;28;20043;-73
2021/12/09 08:47:08;;;;;;;22.73;10.35;;;1.00;99.90;;;;;;5063014;28;20548;-80
2021/12/09 08:49:34;;;;;;;23.92;11.18;;;1.10;99.90;;;;;;5056847;28;20059;-80
2021/12/09 08:52:00;;;;;;;27.27;12.15;;;1.00;99.90;;;;;;5087240;28;20073;-80
2021/12/09 08:54:26;;;;;;;19.33;10.57;;;1.00;99.90;;;;;;5072724;28;20047;-82
2021/12/09 08:56:52;;;;;;;19.17;9.38;;;1.00;99.90;;;;;;5071760;28;20040;-80
2021/12/09 08:59:21;;;;;;;27.60;11.13;;;1.00;99.90;;;;;;5069848;28;20498;-80
2021/12/09 09:01:47;;;;;;;20.25;10.30;;;1.30;99.90;;;;;;5071103;28;20040;-80
2021/12/09 09:04:13;;;;;;;26.45;10.07;;;1.20;99.90;;;;;;5070872;28;20234;-79
2021/12/09 09:06:50;;;;;;;24.77;9.52;;;1.20;99.90;;;;;;5070991;28;20567;-80
2021/12/09 09:09:15;;;;;;;20.85;9.63;;;1.20;99.90;;;;;;5087548;28;20040;-79
2021/12/09 09:11:41;;;;;;;21.60;10.60;;;1.30;99.90;;;;;;5091200;28;20055;-81
2021/12/09 09:14:07;;;;;;;18.88;10.18;;;1.20;99.90;;;;;;5071532;28;20409;-79
2021/12/09 09:16:32;;;;;;;20.38;10.63;;;1.40;99.90;;;;;;5072487;28;20139;-81
2021/12/09 09:18:58;;;;;;;17.20;9.02;;;1.50;99.90;;;;;;5072589;28;20121;-81
2021/12/09 09:21:25;;;;;;;20.63;9.75;;;1.60;99.90;;;;;;5071932;28;20445;-81
2021/12/09 09:23:51;;;;;;;26.52;10.45;;;1.50;99.90;;;;;;5052790;28;20080;-81
2021/12/09 09:26:17;;;;;;;21.30;9.20;;;1.70;99.90;;;;;;5070384;28;20125;-80
2021/12/09 09:28:43;;;;;;;21.13;8.05;;;1.60;99.90;;;;;;5051891;28;20040;-75
2021/12/09 09:31:09;;;;;;;21.50;8.90;;;1.70;99.90;;;;;;5062128;28;20047;-81
2021/12/09 09:33:35;;;;;;;16.88;8.68;;;1.60;99.90;;;;;;5072907;28;20375;-80
2021/12/09 09:36:01;;;;;;;18.58;9.48;;;1.70;99.90;;;;;;5059944;28;20541;-76
2021/12/09 09:38:27;;;;;;;25.05;9.35;;;1.80;99.90;;;;;;5071828;28;20036;-79
2021/12/09 09:41:13;;;;;;;22.88;9.93;;;1.70;99.90;;;;;;5072261;28;20045;-80
2021/12/09 09:46:31;;;;;;;21.48;8.20;;;1.90;99.90;;;;;;5089586;28;20399;-81
2021/12/09 09:48:59;;;;;;;15.45;9.10;;;2.00;99.90;;;;;;5090034;28;20063;-81
2021/12/09 09:51:26;;;;;;;18.77;8.07;;;2.00;99.90;;;;;;5089132;28;20048;-80
2021/12/09 09:53:52;;;;;;;22.23;9.07;;;2.20;99.90;;;;;;5086598;28;20033;-80
2021/12/09 09:56:21;;;;;;;13.38;9.43;;;2.10;99.90;;;;;;5069100;28;20410;-81
2021/12/09 09:58:54;;;;;;;20.38;9.27;;;2.20;99.90;;;;;;5070449;28;20115;-81
2021/12/09 10:01:21;;;;;;;20.55;8.60;;;2.40;99.90;;;;;;5065790;28;20044;-82
2021/12/09 10:03:51;;;;;;;19.65;10.13;;;2.40;99.90;;;;;;5062510;28;20044;-81
2021/12/09 10:06:19;;;;;;;19.20;8.73;;;2.30;99.90;;;;;;5077144;28;20052;-80
2021/12/09 10:08:46;;;;;;;18.98;9.52;;;2.40;99.90;;;;;;5071538;28;20129;-81
2021/12/09 10:11:11;;;;;;;21.85;9.20;;;2.50;99.90;;;;;;5053518;28;20040;-81
2021/12/09 10:13:41;;;;;;;15.32;8.88;;;2.50;99.90;;;;;;5049525;28;20118;-81
2021/12/09 10:16:22;;;;;;;16.07;9.43;;;2.60;99.90;;;;;;5079961;28;20055;-80
2021/12/09 10:18:50;;;;;;;18.38;8.65;;;2.50;99.90;;;;;;5052255;28;20040;-83
2021/12/09 10:21:25;;;;;;;25.10;11.65;;;2.70;99.90;;;;;;5073676;28;20127;-82
2021/12/09 10:24:03;;;;;;;19.27;10.30;;;2.70;99.90;;;;;;5066887;28;20086;-82
2021/12/09 10:26:31;;;;;;;16.40;8.15;;;2.60;99.90;;;;;;5052659;28;20060;-81
2021/12/09 10:29:25;;;;;;;27.80;11.23;;;2.60;99.90;;;;;;5051511;28;20045;-84
2021/12/09 10:32:03;;;;;;;23.55;11.02;;;2.60;99.90;;;;;;5070691;28;20036;-80
2021/12/09 10:34:39;;;;;;;22.02;10.13;;;2.60;99.90;;;;;;5054490;28;20066;-79
2021/12/09 10:37:13;;;;;;;18.10;11.18;;;2.50;99.90;;;;;;5084007;28;20118;-82
2021/12/09 10:39:48;;;;;;;28.20;10.88;;;2.40;99.90;;;;;;5075513;28;20525;-75
2021/12/09 10:42:18;;;;;;;19.33;11.55;;;2.50;99.90;;;;;;5063990;28;20051;-74
2021/12/09 10:44:49;;;;;;;;;;;2.40;99.90;;;;;;5057078;28;20041;-78
2021/12/09 10:47:34;;;;;;;23.02;11.82;;;2.50;99.90;;;;;;5057432;28;20011;-77
2021/12/09 10:50:08;;;;;;;23.48;11.93;;;2.40;99.90;;;;;;5057629;28;20039;-80
2021/12/09 10:52:41;;;;;;;20.67;11.60;;;2.50;99.90;;;;;;5051721;28;20060;-80
2021/12/09 10:55:31;;;;;;;29.60;14.00;;;2.60;99.90;;;;;;5073057;28;20410;-84
2021/12/09 10:58:04;;;;;;;28.90;12.45;;;2.50;99.90;;;;;;5083705;28;20032;-82
2021/12/09 11:01:08;;;;;;;27.65;13.32;;;2.40;99.90;;;;;;5069338;28;20036;-83
2021/12/09 11:03:43;;;;;;;27.92;12.32;;;2.40;99.90;;;;;;5066089;28;20091;-82
2021/12/09 11:06:14;;;;;;;27.17;13.05;;;2.50;99.90;;;;;;5091595;28;20060;-83
2021/12/09 11:08:57;;;;;;;26.83;11.98;;;2.60;99.90;;;;;;5062872;28;20044;-83
2021/12/09 11:11:33;;;;;;;27.33;13.93;;;2.60;99.90;;;;;;5074256;28;20387;-84
2021/12/09 11:14:08;;;;;;;28.65;13.02;;;2.50;99.90;;;;;;5051772;28;20127;-84
2021/12/09 11:16:38;;;;;;;28.17;13.75;;;2.70;99.90;;;;;;5063453;28;20044;-84
2021/12/09 11:19:07;;;;;;;;;;;2.70;99.90;;;;;;5053482;28;20044;-84
2021/12/09 11:21:39;;;;;;;29.00;14.23;;;2.70;99.90;;;;;;5076884;28;19981;-85
2021/12/09 11:24:11;;;;;;;27.85;15.10;;;2.60;99.90;;;;;;5087055;28;20071;-84
2021/12/09 11:27:00;;;;;;;32.45;15.07;;;2.60;99.90;;;;;;5052010;28;20076;-82
2021/12/09 11:29:39;;;;;;;28.58;12.70;;;2.70;99.90;;;;;;5089811;28;20048;-83
2021/12/09 11:34:44;;;;;;;33.20;13.82;;;2.60;99.90;;;;;;5082372;28;20059;-84
2021/12/09 11:37:35;;;;;;;28.95;13.23;;;2.70;99.90;;;;;;5087773;28;20106;-85
2021/12/09 11:40:06;;;;;;;27.98;12.93;;;2.80;99.90;;;;;;5055819;28;20087;-81
2021/12/09 11:42:39;;;;;;;24.23;14.18;;;2.70;99.90;;;;;;5058886;28;20118;-85
2021/12/09 11:45:08;;;;;;;25.08;12.70;;;2.70;99.90;;;;;;5069168;28;20040;-85
2021/12/09 11:47:36;;;;;;;30.88;12.07;;;2.80;99.90;;;;;;5090125;28;20048;-83
2021/12/09 11:50:03;;;;;;;22.15;10.82;;;2.70;99.90;;;;;;5076392;28;20044;-76
2021/12/09 11:52:29;;;;;;;23.05;12.40;;;2.70;99.90;;;;;;5097084;28;20128;-85
2021/12/09 11:55:02;;;;;;;35.95;14.70;;;2.80;99.90;;;;;;5078821;28;20037;-84
2021/12/09 12:11:59;;;;;;;33.70;15.60;;;2.90;99.90;;;;;;5087469;28;20044;-85
2021/12/09 12:14:40;;;;;;;23.63;12.23;;;2.90;99.90;;;;;;5063372;28;20067;-81
2021/12/09 12:17:20;;;;;;;31.27;15.38;;;2.80;99.90;;;;;;5057550;28;20052;-84
2021/12/09 12:20:27;;;;;;;;;;;3.00;99.90;;;;;;5042042;28;20036;-84
2021/12/09 12:23:00;;;;;;;29.52;15.43;;;2.80;99.90;;;;;;5058071;28;19926;-74
2021/12/09 12:29:02;;;;;;;27.33;15.82;;;2.90;99.90;;;;;;5073996;28;20048;-86
2021/12/09 12:32:13;;;;;;;35.55;13.50;;;3.00;99.90;;;;;;5072297;28;20048;-82
2021/12/09 12:40:42;;;;;;;27.25;16.25;;;3.10;99.90;;;;;;5076821;28;20048;-82
2021/12/09 12:43:16;;;;;;;35.05;18.13;;;3.20;99.90;;;;;;5071906;28;20505;-84
2021/12/09 12:46:10;;;;;;;28.45;16.30;;;3.30;99.90;;;;;;5055270;28;20117;-83
2021/12/09 12:48:46;;;;;;;32.92;15.48;;;3.30;99.90;;;;;;5077357;28;20080;-83
2021/12/09 12:51:54;;;;;;;35.00;17.58;;;3.30;99.90;;;;;;5070965;28;20048;-72
2021/12/09 12:57:30;;;;;;;27.17;15.25;;;3.20;99.90;;;;;;5071444;28;20060;-72
2021/12/09 13:00:07;;;;;;;29.40;18.55;;;3.40;99.90;;;;;;5088601;28;20109;-80
2021/12/09 13:10:51;;;;;;;30.38;15.82;;;3.30;99.90;;;;;;5084832;28;20086;-78
2021/12/09 13:13:31;;;;;;;38.97;17.63;;;3.30;99.90;;;;;;5078805;28;20084;-80
2021/12/09 13:18:45;;;;;;;38.47;19.00;;;3.30;99.90;;;;;;5075453;28;20081;-81
2021/12/09 13:21:42;;;;;;;40.58;19.15;;;3.50;99.90;;;;;;5084502;28;20422;-80
2021/12/09 13:24:39;;;;;;;36.13;18.08;;;3.40;99.90;;;;;;5083281;28;20092;-82
2021/12/09 13:27:21;;;;;;;36.88;18.75;;;3.40;99.90;;;;;;5059584;28;20079;-81
2021/12/09 13:30:28;;;;;;;42.80;19.05;;;3.40;99.90;;;;;;5054529;28;20127;-80
2021/12/09 13:36:19;;;;;;;35.38;17.50;;;3.30;99.90;;;;;;5069739;28;20048;-81
2021/12/09 13:49:42;;;;;;;28.05;15.52;;;3.50;99.90;;;;;;5066526;28;20055;-78
2021/12/09 13:55:27;;;;;;;32.53;17.65;;;3.40;99.90;;;;;;5082200;28;20410;-77
2021/12/09 13:58:01;;;;;;;36.72;16.75;;;3.50;99.90;;;;;;5085057;28;20051;-78